Time;durP1;ratioP1;P1;durP2;ratioP2;P2;SDS_P1;SDS_P2;PMS_P1;PMS_P2;Temp;Humidity;BMP_temperature;BMP_pressure;BME280_temperature;BME280_humidity;BME280_pressure;Samples;Min_cycle;Max_cycle;Signal;HPM_P1;HPM_P2
2022/06/19 00:01:13;;;;;;;10.05;4.90;;;;;;;18.35;63.07;95113.38;4193092;28;20489;-51
2022/06/19 00:03:24;;;;;;;8.35;4.80;;;;;;;18.34;62.72;95115.19;4196764;28;20114;-53
2022/06/19 00:05:26;;;;;;;6.75;5.03;;;;;;;18.30;62.97;95108.63;4194089;28;20056;-53
2022/06/19 00:07:27;;;;;;;6.85;4.60;;;;;;;18.30;62.81;95103.34;4209062;28;20060;-53
2022/06/19 00:09:29;;;;;;;6.20;4.43;;;;;;;18.26;62.66;95102.09;4194834;28;20047;-52
2022/06/19 00:11:33;;;;;;;4.90;4.35;;;;;;;18.25;62.60;95108.44;4202911;28;20094;-53
2022/06/19 00:13:35;;;;;;;7.82;4.60;;;;;;;18.22;62.73;95114.13;4208700;28;20056;-51
2022/06/19 00:15:37;;;;;;;6.20;4.28;;;;;;;18.17;63.20;95113.88;4221163;28;20062;-52
2022/06/19 00:17:39;;;;;;;8.13;4.40;;;;;;;18.04;63.48;95114.63;4207159;28;20048;-54
2022/06/19 00:19:40;;;;;;;6.38;4.88;;;;;;;17.90;64.29;95116.38;4199115;28;20047;-53
2022/06/19 00:21:42;;;;;;;6.15;4.65;;;;;;;17.86;64.37;95111.69;4208207;28;20528;-50
2022/06/19 00:23:45;;;;;;;5.72;4.82;;;;;;;17.87;64.74;95116.75;4209334;28;20373;-48
2022/06/19 00:25:47;;;;;;;6.65;4.32;;;;;;;17.90;64.50;95113.75;4208422;28;20110;-49
2022/06/19 00:27:49;;;;;;;6.82;5.65;;;;;;;17.80;64.19;95116.69;4205807;28;20055;-50
2022/06/19 00:29:51;;;;;;;8.48;4.68;;;;;;;17.75;64.27;95111.16;4206812;28;20136;-50
2022/06/19 00:31:54;;;;;;;9.38;4.70;;;;;;;17.76;64.26;95111.97;4208829;28;20047;-51
2022/06/19 00:33:56;;;;;;;7.47;5.53;;;;;;;17.73;64.49;95107.06;4205648;28;20109;-51
2022/06/19 00:35:57;;;;;;;8.18;5.00;;;;;;;17.63;64.71;95106.59;4215191;28;20060;-53
2022/06/19 00:37:59;;;;;;;8.48;4.70;;;;;;;17.62;65.11;95116.38;4214075;28;20052;-56
2022/06/19 00:40:03;;;;;;;6.82;4.80;;;;;;;17.67;65.24;95113.13;4200608;28;20123;-54
2022/06/19 00:42:05;;;;;;;;;;;;;;;17.73;64.62;95112.38;4205977;28;20441;-57
2022/06/19 00:44:12;;;;;;;5.55;4.78;;;;;;;17.82;64.18;95111.22;4205493;28;19973;-56
2022/06/19 00:46:45;;;;;;;5.75;4.30;;;;;;;17.90;64.00;95111.09;4206726;28;20147;-56
2022/06/19 00:48:47;;;;;;;7.32;4.80;;;;;;;17.96;64.10;95112.13;4208974;28;20062;-55
2022/06/19 00:50:50;;;;;;;7.22;4.50;;;;;;;17.93;64.07;95113.34;4217961;28;20436;-56
2022/06/19 00:52:52;;;;;;;5.93;4.72;;;;;;;17.93;64.16;95116.00;4215504;28;20435;-55
2022/06/19 00:54:59;;;;;;;7.32;4.53;;;;;;;17.93;63.93;95117.81;4207770;28;20156;-55
2022/06/19 00:57:01;;;;;;;8.20;4.80;;;;;;;17.93;63.96;95123.94;4206482;28;20496;-54
2022/06/19 00:59:03;;;;;;;7.00;5.38;;;;;;;17.93;63.93;95118.63;4201019;28;20139;-56
2022/06/19 01:01:08;;;;;;;6.35;4.80;;;;;;;17.93;63.93;95109.88;4205803;28;20125;-56
2022/06/19 01:03:46;;;;;;;6.68;5.13;;;;;;;17.91;64.07;95112.72;4197930;28;20483;-57
2022/06/19 01:05:48;;;;;;;7.38;4.95;;;;;;;17.88;63.90;95114.94;4162416;28;20090;-57
2022/06/19 01:07:50;;;;;;;6.88;4.68;;;;;;;17.89;63.94;95103.31;4206296;28;20498;-55
2022/06/19 01:09:52;;;;;;;6.18;4.70;;;;;;;17.87;64.15;95114.09;4204471;28;20106;-58
2022/06/19 01:11:54;;;;;;;7.30;4.40;;;;;;;17.87;64.08;95102.69;4205505;28;20085;-58
2022/06/19 01:13:57;;;;;;;8.20;4.60;;;;;;;17.88;63.90;95110.47;4221934;28;20549;-59
2022/06/19 01:16:01;;;;;;;8.30;4.43;;;;;;;17.89;63.92;95106.78;4202002;28;20059;-55
2022/06/19 01:18:04;;;;;;;7.15;4.80;;;;;;;17.90;63.75;95105.78;4208438;28;20056;-54
2022/06/19 01:20:09;;;;;;;4.93;4.22;;;;;;;17.89;64.00;95112.09;4222507;28;20064;-57
2022/06/19 01:22:24;;;;;;;5.45;4.50;;;;;;;17.87;64.04;95111.47;4207472;28;20157;-55
2022/06/19 01:24:53;;;;;;;8.63;5.15;;;;;;;17.80;64.54;95107.94;4206573;28;20133;-53
2022/06/19 01:26:59;;;;;;;6.05;4.80;;;;;;;17.68;64.99;95107.66;4195096;28;20420;-55
2022/06/19 01:29:01;;;;;;;5.65;4.82;;;;;;;17.67;65.23;95103.34;4195837;28;20601;-51
2022/06/19 01:31:03;;;;;;;7.50;5.25;;;;;;;17.64;65.23;95102.91;4206857;28;20483;-49
2022/06/19 01:33:08;;;;;;;6.63;5.00;;;;;;;17.56;64.87;95103.88;4205104;28;20063;-52
2022/06/19 01:35:10;;;;;;;11.70;5.38;;;;;;;17.22;65.81;95101.97;4207557;28;20105;-50
2022/06/19 01:37:24;;;;;;;6.53;4.65;;;;;;;17.09;66.15;95107.97;4210344;28;20511;-51
2022/06/19 01:39:26;;;;;;;;;;;;;;;16.97;66.80;95102.34;4203499;28;21664;-51
2022/06/19 01:41:31;;;;;;;7.50;5.47;;;;;;;16.99;67.22;95100.31;4207224;28;19924;-52
2022/06/19 01:43:34;;;;;;;6.72;5.20;;;;;;;17.08;67.20;95104.50;4206424;28;20049;-52
2022/06/19 01:45:39;;;;;;;6.90;4.93;;;;;;;17.19;66.85;95109.28;4224887;28;20047;-52
2022/06/19 01:47:42;;;;;;;6.88;5.00;;;;;;;17.22;66.62;95105.44;4209750;28;20499;-49
2022/06/19 01:49:45;;;;;;;7.72;5.28;;;;;;;17.31;66.61;95103.47;4197219;28;20400;-50
2022/06/19 01:51:47;;;;;;;6.45;5.13;;;;;;;17.39;66.33;95111.28;4195360;28;20558;-51
2022/06/19 01:53:56;;;;;;;7.10;5.63;;;;;;;17.47;66.20;95103.22;4203948;28;20439;-48
2022/06/19 01:55:58;;;;;;;7.63;5.90;;;;;;;17.53;66.07;95109.56;4196606;28;20052;-50
2022/06/19 01:58:00;;;;;;;9.05;5.47;;;;;;;17.56;65.88;95109.19;4207089;28;20523;-52
2022/06/19 02:00:08;;;;;;;7.97;5.35;;;;;;;17.59;65.74;95101.69;4207545;28;20365;-48
2022/06/19 02:02:12;;;;;;;7.30;5.40;;;;;;;17.60;65.70;95110.44;4211121;28;20044;-51
2022/06/19 02:04:13;;;;;;;12.07;5.88;;;;;;;17.59;65.45;95106.97;4209390;28;20052;-53
2022/06/19 02:06:21;;;;;;;9.40;5.25;;;;;;;17.54;65.31;95114.66;4210603;28;20558;-53
2022/06/19 02:08:23;;;;;;;5.38;4.68;;;;;;;17.28;65.39;95114.47;4210001;28;20464;-49
2022/06/19 02:10:26;;;;;;;7.32;4.95;;;;;;;16.46;68.16;95115.63;4205717;28;20226;-49
2022/06/19 02:12:29;;;;;;;8.85;5.32;;;;;;;16.15;69.72;95106.06;4194024;28;20052;-50
2022/06/19 02:14:31;;;;;;;6.53;4.72;;;;;;;16.01;70.00;95117.47;4220475;28;20068;-51
2022/06/19 02:16:35;;;;;;;8.25;5.47;;;;;;;15.84;70.67;95116.81;4207869;28;20056;-53
2022/06/19 02:18:40;;;;;;;5.50;4.78;;;;;;;15.50;71.62;95115.47;4210317;28;20044;-53
2022/06/19 02:20:42;;;;;;;7.90;5.25;;;;;;;15.32;72.29;95118.44;4209120;28;20442;-50
2022/06/19 02:22:43;;;;;;;6.18;5.05;;;;;;;15.41;72.38;95120.00;4222539;28;20109;-54
2022/06/19 02:24:46;;;;;;;9.68;4.60;;;;;;;15.63;72.21;95120.94;4212727;28;20166;-50
2022/06/19 02:26:48;;;;;;;9.60;4.88;;;;;;;15.88;71.16;95118.09;4198700;28;20513;-51
2022/06/19 02:28:50;;;;;;;7.10;4.82;;;;;;;16.12;70.25;95120.47;4222239;28;20052;-53
2022/06/19 02:30:53;;;;;;;8.05;5.22;;;;;;;16.32;69.36;95122.53;4208536;28;20397;-49
2022/06/19 02:32:55;;;;;;;5.90;5.13;;;;;;;16.48;68.99;95122.34;4210770;28;20142;-53
2022/06/19 02:34:57;;;;;;;5.72;5.13;;;;;;;16.59;68.19;95113.94;4208436;28;20056;-48
2022/06/19 02:37:01;;;;;;;9.30;5.22;;;;;;;16.73;67.85;95122.00;4209735;28;20052;-51
2022/06/19 02:39:38;;;;;;;6.53;4.70;;;;;;;16.82;67.30;95125.38;4210578;28;20064;-50
2022/06/19 02:41:45;;;;;;;5.65;4.70;;;;;;;16.88;66.99;95124.66;4195384;28;20396;-54
2022/06/19 02:43:47;;;;;;;9.35;4.80;;;;;;;16.93;66.81;95127.56;4208575;28;20299;-53
2022/06/19 02:45:49;;;;;;;10.13;4.65;;;;;;;16.99;66.64;95127.63;4207925;28;20465;-54
2022/06/19 02:47:53;;;;;;;8.23;4.93;;;;;;;17.01;66.54;95124.78;4206199;28;20063;-55
2022/06/19 02:49:55;;;;;;;5.82;4.95;;;;;;;17.04;66.62;95120.97;4201780;28;20523;-54
2022/06/19 02:51:56;;;;;;;8.20;5.80;;;;;;;17.08;66.00;95125.69;4204184;28;20475;-53
2022/06/19 02:53:58;;;;;;;10.85;8.82;;;;;;;17.12;65.90;95132.25;4209453;28;20055;-52
2022/06/19 02:56:00;;;;;;;14.68;13.02;;;;;;;17.14;65.72;95142.63;4207671;28;20062;-52
2022/06/19 02:58:02;;;;;;;19.83;14.02;;;;;;;17.10;65.84;95144.84;4197157;28;20052;-48
2022/06/19 03:00:06;;;;;;;18.73;14.70;;;;;;;17.13;65.80;95138.34;4208476;28;20509;-51
2022/06/19 03:02:11;;;;;;;15.13;11.38;;;;;;;17.14;65.56;95139.97;4209686;28;20105;-52
2022/06/19 03:04:34;;;;;;;10.90;8.75;;;;;;;17.14;65.47;95143.47;4210015;28;20128;-51
2022/06/19 03:06:36;;;;;;;10.00;8.40;;;;;;;17.17;65.53;95142.25;4196683;28;20048;-52
2022/06/19 03:08:37;;;;;;;9.43;6.75;;;;;;;17.14;65.15;95143.47;4209983;28;20044;-52
2022/06/19 03:10:39;;;;;;;9.75;7.35;;;;;;;17.15;65.27;95147.72;4209326;28;20052;-48
2022/06/19 03:12:41;;;;;;;10.82;8.50;;;;;;;17.17;65.37;95147.56;4209921;28;20056;-49
2022/06/19 03:14:44;;;;;;;7.25;5.78;;;;;;;17.19;65.29;95149.00;4206914;28;20043;-52
2022/06/19 03:16:46;;;;;;;10.05;6.10;;;;;;;17.22;65.18;95149.63;4209206;28;20051;-51
2022/06/19 03:18:48;;;;;;;7.18;6.10;;;;;;;17.19;65.25;95148.19;4209903;28;20127;-52
2022/06/19 03:20:49;;;;;;;12.57;6.18;;;;;;;17.11;65.61;95145.66;4209616;28;20059;-53
2022/06/19 03:22:52;;;;;;;9.48;6.75;;;;;;;17.01;66.29;95150.44;4222361;28;20066;-50
2022/06/19 03:24:53;;;;;;;8.45;5.82;;;;;;;17.01;66.28;95150.44;4209277;28;20109;-53
2022/06/19 03:26:55;;;;;;;7.72;5.93;;;;;;;17.07;66.38;95152.34;4209105;28;20684;-54
2022/06/19 03:28:58;;;;;;;12.02;7.13;;;;;;;17.15;66.49;95145.09;4209353;28;20113;-48
2022/06/19 03:30:59;;;;;;;7.72;6.65;;;;;;;17.29;66.13;95153.97;4207828;28;20060;-50
2022/06/19 03:33:01;;;;;;;9.45;6.68;;;;;;;17.39;65.73;95149.19;4209252;28;20056;-50
2022/06/19 03:35:03;;;;;;;8.18;7.00;;;;;;;17.50;65.47;95152.31;4207038;28;20511;-50
2022/06/19 03:37:05;;;;;;;9.55;6.53;;;;;;;17.57;65.24;95146.09;4209312;28;20052;-51
2022/06/19 03:39:07;;;;;;;7.05;5.97;;;;;;;17.63;65.09;95143.69;4215546;28;20081;-51
2022/06/19 03:41:09;;;;;;;11.05;6.97;;;;;;;17.71;64.34;95140.88;4213115;28;20390;-50
2022/06/19 03:43:11;;;;;;;12.27;6.93;;;;;;;17.76;64.30;95135.81;4195163;28;20397;-52
2022/06/19 03:45:12;;;;;;;11.13;8.10;;;;;;;17.80;64.27;95134.44;4205479;28;20052;-54
2022/06/19 03:47:23;;;;;;;12.27;8.60;;;;;;;17.85;64.30;95141.81;4209517;28;20437;-52
2022/06/19 03:49:26;;;;;;;11.45;8.05;;;;;;;17.86;64.06;95141.63;4199522;28;20294;-52
2022/06/19 03:51:28;;;;;;;14.95;8.88;;;;;;;17.90;64.06;95137.59;4215589;28;20410;-50
2022/06/19 03:53:30;;;;;;;12.25;10.38;;;;;;;17.95;63.81;95135.16;4222121;27;20085;-52
2022/06/19 03:55:31;;;;;;;12.48;9.85;;;;;;;18.03;63.69;95136.06;4204402;28;20048;-52
2022/06/19 03:57:33;;;;;;;12.85;9.25;;;;;;;18.05;63.53;95131.34;4219139;28;20052;-47
2022/06/19 03:59:35;;;;;;;11.80;10.07;;;;;;;18.09;63.38;95136.09;4199756;28;20416;-51
2022/06/19 04:01:39;;;;;;;15.57;10.77;;;;;;;18.14;63.30;95135.50;4200060;28;20040;-48
2022/06/19 04:03:41;;;;;;;13.75;11.75;;;;;;;18.22;62.98;95140.66;4218197;28;20048;-49
2022/06/19 04:05:43;;;;;;;14.13;11.88;;;;;;;18.28;63.03;95147.78;4219989;28;20097;-52
2022/06/19 04:07:46;;;;;;;13.02;9.65;;;;;;;18.33;63.00;95144.59;4208688;28;20067;-49
2022/06/19 04:09:48;;;;;;;10.90;7.75;;;;;;;18.29;63.19;95148.63;4218278;28;20544;-49
2022/06/19 04:11:50;;;;;;;13.43;7.30;;;;;;;18.15;63.39;95150.38;4208278;28;20105;-51
2022/06/19 04:13:53;;;;;;;10.13;6.63;;;;;;;17.87;64.26;95155.69;4218004;28;20488;-48
2022/06/19 04:15:55;;;;;;;9.23;7.20;;;;;;;17.50;65.31;95154.97;4202615;28;20102;-52
2022/06/19 04:17:56;;;;;;;11.57;6.97;;;;;;;17.45;65.97;95146.78;4207458;28;20090;-49
2022/06/19 04:19:58;;;;;;;7.57;6.70;;;;;;;17.50;65.72;95158.44;4207884;28;20048;-50
2022/06/19 04:22:00;;;;;;;7.80;6.97;;;;;;;17.38;65.87;95152.03;4208527;28;20048;-50
2022/06/19 04:24:04;;;;;;;11.73;7.53;;;;;;;17.44;66.00;95155.72;4204342;28;20539;-53
2022/06/19 04:26:09;;;;;;;9.18;7.18;;;;;;;17.52;65.62;95152.97;4208089;28;20060;-50
2022/06/19 04:28:10;;;;;;;10.45;6.53;;;;;;;17.44;65.28;95153.09;4203720;28;20118;-51
2022/06/19 04:30:13;;;;;;;9.75;6.78;;;;;;;17.49;65.46;95150.72;4193000;28;20056;-48
2022/06/19 04:32:14;;;;;;;8.25;6.82;;;;;;;17.36;65.30;95148.75;4214001;28;20040;-51
2022/06/19 04:34:16;;;;;;;12.13;6.63;;;;;;;17.22;65.75;95154.94;4215862;28;20063;-47
2022/06/19 04:36:20;;;;;;;7.57;6.65;;;;;;;17.19;65.92;95154.28;4217024;28;20117;-52
2022/06/19 04:38:22;;;;;;;7.68;6.00;;;;;;;17.35;65.41;95150.56;4218282;28;20105;-50
2022/06/19 04:40:28;;;;;;;13.90;6.53;;;;;;;17.55;65.17;95158.69;4193704;28;20198;-53
2022/06/19 04:42:30;;;;;;;7.13;6.13;;;;;;;17.50;64.39;95155.78;4205251;28;20485;-53
2022/06/19 04:44:31;;;;;;;9.88;7.03;;;;;;;17.49;64.69;95154.16;4195569;28;20511;-47
2022/06/19 04:46:33;;;;;;;7.15;6.32;;;;;;;17.58;64.54;95155.66;4206871;28;20048;-49
2022/06/19 04:48:36;;;;;;;7.80;6.57;;;;;;;17.71;64.06;95151.50;4208867;28;20055;-50
2022/06/19 04:50:38;;;;;;;11.40;6.80;;;;;;;17.85;63.93;95141.81;4194157;28;20056;-49
2022/06/19 04:52:39;;;;;;;9.25;6.47;;;;;;;17.99;63.66;95148.88;4207755;28;20743;-51
2022/06/19 04:54:42;;;;;;;8.98;6.07;;;;;;;18.15;63.46;95153.03;4203057;28;20056;-49
2022/06/19 04:56:46;;;;;;;8.13;6.50;;;;;;;18.37;62.74;95162.56;4199556;28;20500;-52
2022/06/19 04:58:49;;;;;;;10.38;6.53;;;;;;;18.50;62.44;95158.31;4198084;28;20424;-49
2022/06/19 05:00:52;;;;;;;8.07;6.70;;;;;;;18.62;62.24;95159.41;4204015;28;20421;-54
2022/06/19 05:02:54;;;;;;;7.25;6.40;;;;;;;18.73;61.59;95158.81;4193848;28;20647;-51
2022/06/19 05:04:56;;;;;;;7.82;6.60;;;;;;;18.85;61.09;95158.31;4200398;28;20135;-52
2022/06/19 05:06:57;;;;;;;8.60;6.53;;;;;;;18.94;60.67;95155.25;4211454;28;20313;-52
2022/06/19 05:08:59;;;;;;;7.78;6.88;;;;;;;19.03;60.54;95163.88;4211801;28;20044;-52
2022/06/19 05:11:01;;;;;;;7.63;6.32;;;;;;;19.09;59.96;95156.94;4211339;28;20105;-50
2022/06/19 05:13:05;;;;;;;8.65;5.97;;;;;;;19.16;59.75;95158.56;4209311;28;20113;-53
2022/06/19 05:15:08;;;;;;;8.05;6.75;;;;;;;19.19;59.95;95166.16;4209714;28;20081;-53
2022/06/19 05:17:09;;;;;;;7.80;7.05;;;;;;;19.11;59.88;95163.69;4202667;28;20458;-51
2022/06/19 05:19:11;;;;;;;8.07;7.28;;;;;;;19.04;59.85;95168.16;4205821;28;20081;-48
2022/06/19 05:21:13;;;;;;;8.38;6.30;;;;;;;18.96;60.26;95161.19;4198215;28;20473;-51
2022/06/19 05:23:15;;;;;;;9.45;6.68;;;;;;;19.05;60.35;95166.31;4209308;28;20055;-49
2022/06/19 05:25:16;;;;;;;8.45;7.28;;;;;;;18.98;60.23;95164.47;4211350;28;20093;-52
2022/06/19 05:27:18;;;;;;;8.93;7.60;;;;;;;18.96;60.77;95165.69;4211349;28;20097;-52
2022/06/19 05:29:20;;;;;;;12.00;7.05;;;;;;;19.06;60.56;95166.13;4201481;28;20060;-50
2022/06/19 05:31:22;;;;;;;12.50;7.00;;;;;;;19.03;60.52;95167.31;4206108;28;20466;-50
2022/06/19 05:33:25;;;;;;;9.95;7.80;;;;;;;18.89;61.08;95164.84;4210302;28;20069;-49
2022/06/19 05:35:27;;;;;;;8.77;7.65;;;;;;;18.81;61.40;95179.09;4210307;28;20104;-51
2022/06/19 05:37:28;;;;;;;10.25;7.47;;;;;;;18.73;61.80;95172.09;4204101;28;20488;-47
2022/06/19 05:39:31;;;;;;;11.73;8.02;;;;;;;18.69;62.21;95170.03;4204085;28;20048;-53
2022/06/19 05:41:34;;;;;;;9.50;8.35;;;;;;;18.73;62.08;95168.63;4202750;28;20189;-52
2022/06/19 05:43:36;;;;;;;8.23;7.43;;;;;;;18.90;61.88;95163.81;4202954;28;20381;-51
2022/06/19 05:45:38;;;;;;;9.18;7.97;;;;;;;19.11;61.15;95162.88;4207000;28;20574;-49
2022/06/19 05:47:40;;;;;;;8.23;7.40;;;;;;;19.28;60.64;95165.97;4202202;28;20086;-53
2022/06/19 05:49:42;;;;;;;10.50;7.85;;;;;;;19.43;60.31;95166.59;4199488;28;20060;-52
2022/06/19 05:51:43;;;;;;;15.13;7.50;;;;;;;19.47;60.42;95165.19;4204906;28;20043;-52
2022/06/19 05:53:54;;;;;;;9.07;8.15;;;;;;;19.53;60.62;95164.38;4210909;28;20132;-50
2022/06/19 05:55:56;;;;;;;15.82;8.45;;;;;;;19.62;60.48;95168.47;4206882;28;20105;-50
2022/06/19 05:57:58;;;;;;;11.60;7.43;;;;;;;19.71;59.76;95168.31;4207406;28;20048;-51
2022/06/19 06:00:00;;;;;;;8.68;7.22;;;;;;;19.81;59.30;95172.19;4201935;28;20366;-52
2022/06/19 06:02:02;;;;;;;15.63;7.60;;;;;;;19.89;59.54;95168.50;4210567;28;20392;-51
2022/06/19 06:04:04;;;;;;;11.30;7.53;;;;;;;19.97;59.74;95176.25;4201277;28;20048;-52
2022/06/19 06:06:10;;;;;;;9.35;8.20;;;;;;;19.83;58.76;95171.97;4204347;28;20151;-51
2022/06/19 06:08:12;;;;;;;10.35;8.30;;;;;;;19.62;59.63;95168.47;4199837;28;20051;-53
2022/06/19 06:10:21;;;;;;;9.25;8.18;;;;;;;19.59;60.08;95166.19;4205073;28;20040;-52
2022/06/19 06:12:23;;;;;;;10.20;8.07;;;;;;;19.48;60.38;95169.47;4207094;28;20048;-53
2022/06/19 06:14:24;;;;;;;10.07;7.88;;;;;;;19.32;60.30;95167.22;4212160;28;20455;-51
2022/06/19 06:16:26;;;;;;;7.95;7.15;;;;;;;19.31;60.41;95168.22;4202706;28;20051;-50
2022/06/19 06:18:28;;;;;;;9.38;7.65;;;;;;;19.46;60.42;95160.06;4214946;28;20051;-50
2022/06/19 06:20:30;;;;;;;8.77;7.13;;;;;;;19.62;60.62;95165.81;4210007;28;20044;-51
2022/06/19 06:22:32;;;;;;;11.10;7.88;;;;;;;19.59;59.30;95168.03;4220498;28;20043;-51
2022/06/19 06:24:33;;;;;;;9.30;7.18;;;;;;;19.57;60.04;95162.94;4214366;28;20129;-50
2022/06/19 06:26:35;;;;;;;8.13;7.30;;;;;;;19.69;59.73;95155.19;4210284;28;20376;-51
2022/06/19 06:28:39;;;;;;;8.10;7.22;;;;;;;19.69;59.33;95167.66;4224041;28;20328;-55
2022/06/19 06:30:41;;;;;;;9.30;6.82;;;;;;;19.60;59.30;95170.50;4208309;28;20077;-50
2022/06/19 06:32:43;;;;;;;9.07;6.57;;;;;;;19.78;59.37;95169.91;4210694;28;20078;-52
2022/06/19 06:34:45;;;;;;;11.27;7.43;;;;;;;20.01;59.23;95169.50;4209471;28;20197;-50
2022/06/19 06:36:47;;;;;;;9.85;6.90;;;;;;;20.20;59.02;95157.22;4222445;28;20560;-51
2022/06/19 06:38:48;;;;;;;10.50;7.30;;;;;;;20.30;58.50;95164.75;4210745;28;20044;-51
2022/06/19 06:40:51;;;;;;;10.07;7.85;;;;;;;20.28;58.21;95153.50;4209303;28;20052;-48
2022/06/19 06:42:52;;;;;;;11.05;7.50;;;;;;;20.23;58.06;95156.78;4209859;28;20073;-49
2022/06/19 06:44:54;;;;;;;9.63;7.22;;;;;;;20.22;57.51;95149.03;4203129;28;20139;-51
2022/06/19 06:46:56;;;;;;;8.27;6.78;;;;;;;20.27;57.44;95149.22;4207544;28;20063;-51
2022/06/19 06:49:04;;;;;;;7.35;5.70;;;;;;;20.30;57.28;95159.44;4210582;28;20052;-52
2022/06/19 06:51:07;;;;;;;10.55;6.10;;;;;;;20.44;56.57;95153.06;4196892;28;20052;-52
2022/06/19 06:53:09;;;;;;;;;;;;;;;20.65;55.94;95149.34;4210429;28;20055;-52
2022/06/19 06:55:12;;;;;;;8.80;5.85;;;;;;;20.82;55.78;95146.19;4210102;28;20093;-52
2022/06/19 06:57:14;;;;;;;6.97;5.25;;;;;;;20.92;55.79;95149.22;4221758;28;20059;-52
2022/06/19 06:59:16;;;;;;;9.38;5.90;;;;;;;21.06;55.27;95145.47;4198042;28;20099;-52
2022/06/19 07:01:20;;;;;;;7.63;5.30;;;;;;;21.18;54.56;95142.94;4207648;28;20453;-51
2022/06/19 07:03:22;;;;;;;8.32;4.68;;;;;;;21.25;54.03;95145.53;4215016;28;20392;-52
2022/06/19 07:05:24;;;;;;;5.22;4.70;;;;;;;21.29;53.70;95144.09;4217035;28;20052;-51
2022/06/19 07:07:26;;;;;;;6.55;4.75;;;;;;;21.44;53.68;95146.47;4221029;28;20052;-50
2022/06/19 07:09:27;;;;;;;7.50;4.40;;;;;;;21.61;53.36;95142.25;4211306;28;20412;-51
2022/06/19 07:11:35;;;;;;;5.13;4.00;;;;;;;21.74;51.01;95138.66;4208639;28;20412;-54
2022/06/19 07:13:38;;;;;;;4.20;3.55;;;;;;;21.86;50.51;95136.13;4208576;28;20059;-52
2022/06/19 07:15:40;;;;;;;6.25;3.78;;;;;;;21.98;50.78;95138.88;4207686;28;20419;-54
2022/06/19 07:17:48;;;;;;;6.20;4.28;;;;;;;22.06;50.92;95127.94;4222591;28;20342;-54
2022/06/19 07:19:50;;;;;;;7.07;3.45;;;;;;;22.20;50.44;95131.25;4209604;28;20062;-50
2022/06/19 07:21:52;;;;;;;4.07;3.08;;;;;;;22.08;46.73;95126.66;4209234;28;20052;-51
2022/06/19 07:23:54;;;;;;;4.13;2.88;;;;;;;21.98;45.83;95121.00;4209188;28;20056;-52
2022/06/19 07:25:56;;;;;;;2.92;2.30;;;;;;;22.06;47.63;95123.41;4199090;28;20531;-52
2022/06/19 07:27:59;;;;;;;5.55;2.55;;;;;;;21.97;46.03;95116.72;4205135;28;20051;-53
2022/06/19 07:30:01;;;;;;;4.88;2.40;;;;;;;22.07;45.03;95118.91;4207272;28;20086;-48
2022/06/19 07:32:03;;;;;;;2.85;2.38;;;;;;;22.18;46.13;95120.84;4209132;28;20052;-53
2022/06/19 07:34:05;;;;;;;4.28;2.70;;;;;;;22.17;45.46;95115.72;4202374;28;20049;-49
2022/06/19 07:36:09;;;;;;;3.30;2.53;;;;;;;22.32;45.14;95118.88;4204283;28;20109;-48
2022/06/19 07:38:10;;;;;;;2.50;2.05;;;;;;;22.49;44.90;95116.41;4207457;28;20056;-53
2022/06/19 07:40:18;;;;;;;4.88;2.50;;;;;;;22.64;44.74;95118.72;4207182;28;20048;-55
2022/06/19 07:42:19;;;;;;;5.18;2.13;;;;;;;22.77;42.99;95115.88;4207261;28;20430;-52
2022/06/19 07:44:21;;;;;;;2.83;2.20;;;;;;;22.89;43.08;95110.59;4209094;28;20105;-51
2022/06/19 07:46:23;;;;;;;2.78;2.05;;;;;;;22.96;42.17;95111.31;4197652;28;20059;-50
2022/06/19 07:50:47;;;;;;;2.35;1.75;;;;;;;23.13;40.88;95116.06;4206561;28;20051;-52
2022/06/19 07:52:50;;;;;;;4.90;1.90;;;;;;;23.22;40.19;95117.38;4209224;28;20097;-51
2022/06/19 07:54:53;;;;;;;2.83;1.88;;;;;;;23.25;40.25;95116.91;4197994;28;20056;-53
2022/06/19 07:56:55;;;;;;;2.15;1.70;;;;;;;;;;4208956;28;20052;-49
2022/06/19 07:59:02;;;;;;;3.17;1.80;;;;;;;23.43;40.75;95116.84;4206615;28;20048;-51
2022/06/19 08:01:04;;;;;;;4.03;1.80;;;;;;;23.50;40.67;95120.22;4205595;28;20048;-50
2022/06/19 08:03:06;;;;;;;2.45;1.80;;;;;;;23.55;40.12;95119.53;4208815;28;20105;-50
2022/06/19 08:05:11;;;;;;;3.53;1.65;;;;;;;23.54;39.96;95119.78;4208713;28;20048;-51
2022/06/19 08:07:14;;;;;;;2.35;1.60;;;;;;;23.48;39.64;95122.31;4209142;28;20466;-49
2022/06/19 08:09:17;;;;;;;6.88;2.00;;;;;;;23.46;40.49;95121.72;4208363;28;20416;-54
2022/06/19 08:11:20;;;;;;;3.25;1.63;;;;;;;23.51;39.86;95113.00;4217657;28;20385;-51
2022/06/19 08:13:23;;;;;;;4.20;2.05;;;;;;;23.41;40.53;95123.47;4212915;28;20039;-51
2022/06/19 08:15:26;;;;;;;5.93;1.70;;;;;;;23.39;38.21;95117.53;4207149;28;20040;-56
2022/06/19 08:17:27;;;;;;;2.20;1.58;;;;;;;23.23;38.73;95111.81;4203962;28;20206;-52
2022/06/19 08:19:29;;;;;;;2.28;1.52;;;;;;;23.29;39.36;95115.41;4203620;28;20060;-50
2022/06/19 08:21:31;;;;;;;5.38;1.65;;;;;;;23.43;39.18;95122.19;4218422;28;20196;-51
2022/06/19 08:23:32;;;;;;;4.68;1.63;;;;;;;23.43;38.37;95110.69;4217607;28;20059;-48
2022/06/19 08:25:34;;;;;;;2.85;1.77;;;;;;;23.42;37.93;95109.03;4208101;28;20492;-51
2022/06/19 08:27:42;;;;;;;1.95;1.30;;;;;;;23.53;38.10;95110.91;4217140;28;20263;-52
2022/06/19 08:29:43;;;;;;;3.80;1.52;;;;;;;23.50;38.05;95106.84;4211902;28;20063;-52
2022/06/19 08:31:45;;;;;;;4.47;1.65;;;;;;;23.29;37.46;95102.84;4208362;28;20098;-51
2022/06/19 08:33:48;;;;;;;3.90;1.63;;;;;;;23.42;38.27;95101.03;4211547;28;20047;-49
2022/06/19 08:35:52;;;;;;;3.58;1.60;;;;;;;23.62;38.14;95109.56;4217552;28;20495;-50
2022/06/19 08:38:00;;;;;;;6.70;1.80;;;;;;;23.79;38.53;95108.91;4209046;28;20266;-54
2022/06/19 08:40:23;;;;;;;2.47;1.38;;;;;;;23.90;38.00;95110.78;4203225;28;20146;-52
2022/06/19 08:42:36;;;;;;;2.17;1.55;;;;;;;23.96;38.01;95101.00;4205512;28;20044;-51
2022/06/19 08:44:48;;;;;;;3.42;1.75;;;;;;;24.07;38.57;95100.16;4206463;28;20069;-52
2022/06/19 08:47:02;;;;;;;2.90;1.70;;;;;;;24.20;37.61;95097.28;4197449;28;20170;-51
2022/06/19 08:49:16;;;;;;;2.67;1.48;;;;;;;24.22;36.74;95097.03;4193908;28;20056;-49
2022/06/19 08:51:23;;;;;;;2.47;1.20;;;;;;;24.31;36.78;95101.00;4208988;28;20047;-50
2022/06/19 08:54:03;;;;;;;5.75;1.75;;;;;;;24.23;36.15;95099.47;4207552;28;20059;-49
2022/06/19 08:56:12;;;;;;;3.95;1.50;;;;;;;24.03;36.60;95091.81;4191352;28;20052;-53
2022/06/19 08:58:33;;;;;;;3.65;1.55;;;;;;;23.97;35.64;95092.75;4204253;28;20064;-56
2022/06/19 09:01:04;;;;;;;2.92;1.58;;;;;;;23.82;36.40;95098.56;4201519;28;20040;-56
2022/06/19 09:05:36;;;;;;;3.75;1.50;;;;;;;23.57;37.59;95097.91;4208272;28;20052;-55
2022/06/19 09:06:14;;;;;;;3.55;1.52;;;;;;;23.38;37.02;95087.31;4207841;28;20054;-55
2022/06/19 09:08:52;;;;;;;3.03;1.50;;;;;;;23.31;36.27;95094.59;4206134;28;20495;-55
2022/06/19 09:11:06;;;;;;;6.90;1.48;;;;;;;23.31;35.49;95092.75;4208038;28;20040;-55
2022/06/19 09:13:29;;;;;;;;;;;;;;;23.21;36.31;95091.66;4208130;28;20052;-56
2022/06/19 09:15:42;;;;;;;4.25;1.38;;;;;;;23.42;36.30;95088.47;4198864;28;20311;-58
2022/06/19 09:18:03;;;;;;;2.97;1.60;;;;;;;23.56;35.21;95083.72;4207236;28;20059;-57
2022/06/19 09:20:15;;;;;;;4.10;1.45;;;;;;;23.79;36.05;95079.47;4204001;28;20051;-56
2022/06/19 09:22:26;;;;;;;2.35;1.35;;;;;;;23.93;35.67;95078.19;4208028;28;20055;-57
2022/06/19 09:24:42;;;;;;;2.17;1.40;;;;;;;23.81;34.73;95080.88;4213327;28;20434;-58
2022/06/19 09:26:52;;;;;;;4.07;1.70;;;;;;;24.00;34.98;95076.22;4222029;28;20387;-56
2022/06/19 09:29:05;;;;;;;2.95;1.27;;;;;;;24.23;35.54;95077.25;4207762;28;20662;-58
2022/06/19 09:31:48;;;;;;;3.10;1.92;;;;;;;24.33;34.63;95070.25;4204621;28;20048;-57
2022/06/19 09:34:14;;;;;;;3.00;1.40;;;;;;;24.60;34.70;95066.25;4195191;28;20113;-53
2022/06/19 09:36:27;;;;;;;2.35;1.23;;;;;;;24.75;34.23;95063.06;4204694;28;20052;-55
2022/06/19 09:38:56;;;;;;;5.50;1.52;;;;;;;24.84;33.80;95066.97;4200046;28;20114;-57
2022/06/19 09:41:03;;;;;;;2.38;1.40;;;;;;;25.02;33.82;95065.97;4193243;28;20056;-56
2022/06/19 09:43:22;;;;;;;1.88;1.20;;;;;;;24.81;33.71;95068.28;4206851;28;20691;-57
2022/06/19 09:45:27;;;;;;;5.70;1.20;;;;;;;24.75;32.70;95053.16;4209058;28;20127;-56
2022/06/19 09:48:09;;;;;;;2.75;1.40;;;;;;;24.62;32.55;95050.75;4202342;28;20121;-59
2022/06/19 09:50:25;;;;;;;5.50;1.30;;;;;;;24.48;33.07;95055.56;4203749;28;20408;-57
2022/06/19 09:52:32;;;;;;;4.43;1.83;;;;;;;24.61;33.02;95057.97;4195398;28;20056;-56